Terminal Aerodrome Forecast
Issued by NWS Jackson, KY

Home | Current Version | Previous Version | Text Only | Print | Product List | Glossary On
Versions: 1 2 3 4 5 6 7 8 9 10 11 12 13 14 15 16 17 18 19 20 21
000
FTUS43 KJKL 260520
TAFLOZ
TAF
KLOZ 260520Z 2606/2706 25006KT P6SM SCT070
     FM260900 24005KT 3SM BR SCT030
     FM261300 23008KT P6SM FEW045 SCT150=

USA.gov is the U.S. government's official web portal to all federal, state and local government web resources and services.